Time;durP1;ratioP1;P1;durP2;ratioP2;P2;SDS_P1;SDS_P2;PMS_P1;PMS_P2;Temp;Humidity;BMP_temperature;BMP_pressure;BME280_temperature;BME280_humidity;BME280_pressure;Samples;Min_cycle;Max_cycle;Signal;HPM_P1;HPM_P2
2021/03/26 00:01:17;;;;;;;17.83;9.30;;;;;;;;;;5091598;28;20028;-76
2021/03/26 00:03:44;;;;;;;20.58;8.80;;;;;;;;;;5091765;28;20384;-75
2021/03/26 00:06:12;;;;;;;24.60;12.60;;;;;;;;;;5093028;28;20062;-76
2021/03/26 00:08:39;;;;;;;23.90;11.20;;;;;;;;;;5092724;28;20020;-76
2021/03/26 00:11:05;;;;;;;23.08;11.52;;;;;;;;;;5093106;28;20051;-76
2021/03/26 00:13:32;;;;;;;23.00;10.82;;;;;;;;;;5093020;28;20058;-76
2021/03/26 00:15:58;;;;;;;23.75;10.88;;;;;;;;;;5091398;28;20120;-75
2021/03/26 00:18:24;;;;;;;20.90;10.60;;;;;;;;;;5093107;28;20476;-76
2021/03/26 00:20:50;;;;;;;28.70;11.95;;;;;;;;;;5092714;28;20107;-75
2021/03/26 00:23:17;;;;;;;30.90;11.80;;;;;;;;;;5092867;28;20077;-75
2021/03/26 00:25:43;;;;;;;28.25;11.68;;;;;;;;;;5092701;28;20043;-76
2021/03/26 00:28:10;;;;;;;27.05;11.52;;;;;;;;;;5091186;28;20020;-75
2021/03/26 00:30:36;;;;;;;26.48;11.13;;;;;;;;;;5092659;28;20058;-76
2021/03/26 00:33:04;;;;;;;21.17;10.25;;;;;;;;;;5091526;28;20028;-77
2021/03/26 00:35:30;;;;;;;23.27;12.88;;;;;;;;;;5092290;28;20044;-76
2021/03/26 00:37:56;;;;;;;21.58;10.32;;;;;;;;;;5091581;28;20031;-76
2021/03/26 00:40:23;;;;;;;21.13;11.50;;;;;;;;;;5092868;28;20020;-76
2021/03/26 00:42:50;;;;;;;20.73;10.63;;;;;;;;;;5092228;28;20028;-75
2021/03/26 00:45:24;;;;;;;25.67;13.82;;;;;;;;;;5092413;28;20040;-75
2021/03/26 00:47:52;;;;;;;19.35;11.43;;;;;;;;;;5092707;28;20096;-76
2021/03/26 00:50:24;;;;;;;19.92;10.52;;;;;;;;;;5092159;28;20099;-76
2021/03/26 00:52:50;;;;;;;19.08;8.68;;;;;;;;;;5092551;28;20024;-76
2021/03/26 00:55:16;;;;;;;16.13;8.25;;;;;;;;;;5092515;28;20016;-76
2021/03/26 00:57:43;;;;;;;24.45;9.82;;;;;;;;;;5090924;28;20036;-76
2021/03/26 01:00:10;;;;;;;21.73;10.48;;;;;;;;;;5091334;28;20498;-76
2021/03/26 01:02:36;;;;;;;18.50;9.40;;;;;;;;;;5092586;28;20422;-76
2021/03/26 01:05:05;;;;;;;16.33;8.50;;;;;;;;;;5092285;28;20051;-75
2021/03/26 01:07:31;;;;;;;17.23;9.57;;;;;;;;;;5094193;28;20075;-76
2021/03/26 01:09:57;;;;;;;16.75;8.68;;;;;;;;;;5096130;28;20016;-75
2021/03/26 01:12:24;;;;;;;15.35;7.78;;;;;;;;;;5096399;28;20484;-76
2021/03/26 01:14:50;;;;;;;14.77;7.63;;;;;;;;;;5096466;28;20031;-76
2021/03/26 01:17:16;;;;;;;19.65;8.95;;;;;;;;;;5095994;28;20049;-76
2021/03/26 01:19:43;;;;;;;16.65;8.18;;;;;;;;;;5096746;28;20407;-76
2021/03/26 01:22:11;;;;;;;17.63;9.15;;;;;;;;;;5095099;28;20047;-75
2021/03/26 01:24:37;;;;;;;20.20;10.43;;;;;;;;;;5095787;28;20027;-75
2021/03/26 01:27:04;;;;;;;18.17;9.68;;;;;;;;;;5096061;28;20056;-75
2021/03/26 01:29:30;;;;;;;15.70;7.30;;;;;;;;;;5094809;28;20046;-76
2021/03/26 01:31:56;;;;;;;11.27;5.85;;;;;;;;;;5095715;28;20022;-76
2021/03/26 01:34:23;;;;;;;11.65;6.05;;;;;;;;;;5094634;28;20573;-77
2021/03/26 01:36:50;;;;;;;15.23;7.50;;;;;;;;;;5096067;28;20362;-77
2021/03/26 01:39:16;;;;;;;13.85;7.25;;;;;;;;;;5095736;28;20426;-76
2021/03/26 01:41:44;;;;;;;12.50;6.22;;;;;;;;;;5094752;28;20072;-76
2021/03/26 01:44:10;;;;;;;10.95;5.85;;;;;;;;;;5094526;28;20169;-75
2021/03/26 01:46:37;;;;;;;15.23;7.05;;;;;;;;;;5095011;28;20396;-75
2021/03/26 01:49:04;;;;;;;13.13;5.03;;;;;;;;;;5095630;28;20032;-75
2021/03/26 01:51:33;;;;;;;11.43;5.65;;;;;;;;;;5095590;28;20028;-76
2021/03/26 01:54:00;;;;;;;12.52;5.45;;;;;;;;;;5095117;28;20021;-76
2021/03/26 01:56:27;;;;;;;16.95;7.97;;;;;;;;;;5094217;28;20024;-76
2021/03/26 01:58:53;;;;;;;21.83;11.95;;;;;;;;;;5095665;28;20024;-76
2021/03/26 02:01:21;;;;;;;19.40;10.23;;;;;;;;;;5095073;28;20073;-76
2021/03/26 02:03:49;;;;;;;20.08;10.57;;;;;;;;;;5095418;28;20541;-76
2021/03/26 02:06:17;;;;;;;24.25;11.00;;;;;;;;;;5094825;28;20032;-75
2021/03/26 02:08:44;;;;;;;15.35;8.85;;;;;;;;;;5095342;28;20024;-76
2021/03/26 02:11:17;;;;;;;15.05;7.93;;;;;;;;;;5095266;28;20534;-75
2021/03/26 02:13:43;;;;;;;17.73;8.45;;;;;;;;;;5094897;28;20051;-75
2021/03/26 02:16:11;;;;;;;18.80;9.25;;;;;;;;;;5095230;28;20031;-75
2021/03/26 02:18:39;;;;;;;18.95;9.43;;;;;;;;;;5094885;28;20475;-76
2021/03/26 02:21:15;;;;;;;22.17;10.10;;;;;;;;;;5094774;28;20103;-75
2021/03/26 02:23:41;;;;;;;17.65;8.85;;;;;;;;;;5095065;28;20366;-76
2021/03/26 02:26:17;;;;;;;18.75;10.48;;;;;;;;;;5094910;28;20070;-75
2021/03/26 02:28:44;;;;;;;21.48;10.65;;;;;;;;;;5094482;28;20024;-75
2021/03/26 02:31:10;;;;;;;18.25;9.25;;;;;;;;;;5094933;28;20027;-76
2021/03/26 02:33:37;;;;;;;14.10;6.68;;;;;;;;;;5093422;28;20026;-77
2021/03/26 02:36:06;;;;;;;9.43;5.63;;;;;;;;;;5094614;28;20028;-77
2021/03/26 02:38:33;;;;;;;12.23;5.95;;;;;;;;;;5095033;28;20020;-76
2021/03/26 02:41:09;;;;;;;12.77;6.57;;;;;;;;;;5094739;28;20024;-76
2021/03/26 02:43:53;;;;;;;17.00;6.63;;;;;;;;;;5094527;28;20016;-76
2021/03/26 02:46:19;;;;;;;21.60;8.00;;;;;;;;;;5094289;28;20078;-75
2021/03/26 02:49:04;;;;;;;16.27;7.75;;;;;;;;;;5094288;28;20024;-75
2021/03/26 02:51:37;;;;;;;15.98;8.15;;;;;;;;;;5093080;28;20108;-76
2021/03/26 02:54:12;;;;;;;18.95;8.85;;;;;;;;;;5094780;28;20031;-76
2021/03/26 02:56:50;;;;;;;18.35;8.32;;;;;;;;;;5094214;28;20030;-76
2021/03/26 02:59:19;;;;;;;21.00;10.40;;;;;;;;;;5094510;28;20480;-76
2021/03/26 03:01:46;;;;;;;18.85;8.88;;;;;;;;;;5092947;28;20035;-76
2021/03/26 03:04:17;;;;;;;18.65;9.40;;;;;;;;;;5093766;28;20021;-76
2021/03/26 03:06:47;;;;;;;18.75;9.10;;;;;;;;;;5094160;28;20069;-76
2021/03/26 03:09:14;;;;;;;14.10;7.78;;;;;;;;;;5094210;28;20020;-75
2021/03/26 03:11:44;;;;;;;18.70;9.38;;;;;;;;;;5093774;28;20048;-76
2021/03/26 03:14:13;;;;;;;24.23;10.73;;;;;;;;;;5092748;28;20054;-75
2021/03/26 03:16:46;;;;;;;23.45;9.70;;;;;;;;;;5093729;28;20024;-76
2021/03/26 03:19:21;;;;;;;21.85;11.23;;;;;;;;;;5093983;28;20024;-75
2021/03/26 03:21:50;;;;;;;22.33;10.98;;;;;;;;;;5093844;28;20052;-75
2021/03/26 03:24:21;;;;;;;17.83;8.50;;;;;;;;;;5093467;28;20091;-75
2021/03/26 03:26:50;;;;;;;27.90;13.07;;;;;;;;;;5093689;28;20039;-76
2021/03/26 03:29:35;;;;;;;27.38;13.05;;;;;;;;;;5093108;28;20016;-75
2021/03/26 03:32:11;;;;;;;29.92;13.40;;;;;;;;;;5093312;28;20144;-75
2021/03/26 03:34:39;;;;;;;30.40;13.10;;;;;;;;;;5093704;28;20416;-76
2021/03/26 03:37:10;;;;;;;30.48;14.20;;;;;;;;;;5093691;28;20024;-76
2021/03/26 03:40:03;;;;;;;35.53;16.23;;;;;;;;;;5092021;28;20034;-76
2021/03/26 03:42:29;;;;;;;35.58;16.33;;;;;;;;;;5088538;28;20082;-76
2021/03/26 03:45:06;;;;;;;23.17;13.48;;;;;;;;;;5093048;28;20028;-74
2021/03/26 03:47:35;;;;;;;25.00;12.15;;;;;;;;;;5093504;28;20032;-75
2021/03/26 03:50:17;;;;;;;27.05;12.95;;;;;;;;;;5093499;28;20523;-75
2021/03/26 03:53:03;;;;;;;25.25;10.85;;;;;;;;;;5093033;28;20062;-75
2021/03/26 03:55:32;;;;;;;27.05;10.00;;;;;;;;;;5093384;28;20031;-76
2021/03/26 03:57:58;;;;;;;25.27;11.10;;;;;;;;;;5093311;28;20441;-76
2021/03/26 04:00:35;;;;;;;17.92;8.82;;;;;;;;;;5091483;28;20027;-76
2021/03/26 04:03:21;;;;;;;13.93;7.13;;;;;;;;;;5093247;28;20028;-76
2021/03/26 04:05:50;;;;;;;14.93;8.02;;;;;;;;;;5091395;28;20463;-76
2021/03/26 04:08:20;;;;;;;11.95;6.13;;;;;;;;;;5093115;28;20031;-76
2021/03/26 04:10:50;;;;;;;13.35;6.85;;;;;;;;;;5093044;28;20024;-76
2021/03/26 04:13:20;;;;;;;19.75;7.63;;;;;;;;;;5091331;28;20411;-76
2021/03/26 04:15:52;;;;;;;15.68;8.30;;;;;;;;;;5091918;28;20048;-76
2021/03/26 04:18:22;;;;;;;28.37;12.23;;;;;;;;;;5093139;28;20024;-75
2021/03/26 04:21:03;;;;;;;27.17;11.75;;;;;;;;;;5092371;28;20031;-76
2021/03/26 04:23:29;;;;;;;27.77;12.35;;;;;;;;;;5091581;28;20028;-76
2021/03/26 04:26:13;;;;;;;21.27;11.35;;;;;;;;;;5091403;28;20062;-75
2021/03/26 04:28:42;;;;;;;27.00;12.35;;;;;;;;;;5091062;28;20468;-76
2021/03/26 04:31:10;;;;;;;31.60;14.15;;;;;;;;;;5092686;28;20055;-76
2021/03/26 04:33:36;;;;;;;44.78;17.98;;;;;;;;;;5092757;28;20024;-76
2021/03/26 04:36:04;;;;;;;36.05;15.88;;;;;;;;;;5092699;28;20020;-76
2021/03/26 04:38:41;;;;;;;34.65;14.98;;;;;;;;;;5092632;28;20024;-76
2021/03/26 04:41:18;;;;;;;28.77;14.55;;;;;;;;;;5092089;28;20020;-76
2021/03/26 04:43:50;;;;;;;26.48;13.38;;;;;;;;;;5091229;28;20030;-76
2021/03/26 04:46:16;;;;;;;25.70;14.70;;;;;;;;;;5092218;28;20097;-75
2021/03/26 04:48:49;;;;;;;28.15;12.57;;;;;;;;;;5090839;28;20059;-75
2021/03/26 04:51:22;;;;;;;46.90;22.23;;;;;;;;;;5092454;28;20024;-76
2021/03/26 04:53:54;;;;;;;75.07;29.27;;;;;;;;;;5092687;28;20054;-76
2021/03/26 04:56:26;;;;;;;44.28;23.27;;;;;;;;;;5092196;28;20107;-76
2021/03/26 04:58:55;;;;;;;36.33;18.05;;;;;;;;;;5092495;28;20377;-76
2021/03/26 05:01:22;;;;;;;37.63;17.48;;;;;;;;;;5092310;28;20031;-77
2021/03/26 05:03:57;;;;;;;27.02;13.77;;;;;;;;;;5091961;28;20020;-76
2021/03/26 05:06:29;;;;;;;32.22;18.60;;;;;;;;;;5091387;28;20480;-77
2021/03/26 05:09:12;;;;;;;34.85;17.30;;;;;;;;;;5092404;28;20575;-78
2021/03/26 05:11:46;;;;;;;30.55;17.17;;;;;;;;;;5092287;28;20028;-78
2021/03/26 05:14:15;;;;;;;34.70;18.20;;;;;;;;;;5092497;28;20111;-77
2021/03/26 05:17:01;;;;;;;38.78;18.33;;;;;;;;;;5091948;28;20084;-75
2021/03/26 05:19:34;;;;;;;30.50;16.42;;;;;;;;;;5091981;28;20418;-75
2021/03/26 05:22:00;;;;;;;42.83;20.27;;;;;;;;;;5092266;28;20024;-77
2021/03/26 05:24:40;;;;;;;28.48;15.35;;;;;;;;;;5090663;28;20032;-77
2021/03/26 05:27:08;;;;;;;26.85;12.73;;;;;;;;;;5092247;28;20608;-76
2021/03/26 05:29:34;;;;;;;22.27;13.48;;;;;;;;;;5091012;28;20055;-76
2021/03/26 05:32:12;;;;;;;25.88;13.30;;;;;;;;;;5092039;28;20028;-76
2021/03/26 05:34:50;;;;;;;27.80;11.73;;;;;;;;;;5091235;28;20066;-77
2021/03/26 05:37:20;;;;;;;23.00;13.73;;;;;;;;;;5091823;28;20038;-76
2021/03/26 05:39:49;;;;;;;31.52;16.50;;;;;;;;;;5092089;28;20070;-77
2021/03/26 05:42:21;;;;;;;36.58;16.42;;;;;;;;;;5092075;28;20054;-76
2021/03/26 05:44:52;;;;;;;33.28;15.20;;;;;;;;;;5091593;28;20028;-76
2021/03/26 05:47:34;;;;;;;35.97;19.02;;;;;;;;;;5090655;28;20040;-76
2021/03/26 05:50:03;;;;;;;33.17;17.23;;;;;;;;;;5091878;28;20069;-76
2021/03/26 05:52:48;;;;;;;33.40;16.73;;;;;;;;;;5091532;28;20020;-76
2021/03/26 05:55:33;;;;;;;30.75;18.42;;;;;;;;;;5095882;28;20031;-76
2021/03/26 05:58:17;;;;;;;31.30;16.45;;;;;;;;;;5095803;28;20020;-77
2021/03/26 06:00:52;;;;;;;24.15;13.45;;;;;;;;;;5095525;28;20066;-76
2021/03/26 06:03:22;;;;;;;25.88;14.23;;;;;;;;;;5094266;28;20476;-76
2021/03/26 06:05:49;;;;;;;21.98;12.38;;;;;;;;;;5092865;28;20105;-75
2021/03/26 06:08:15;;;;;;;21.40;11.93;;;;;;;;;;5095541;28;20020;-75
2021/03/26 06:10:44;;;;;;;22.02;12.35;;;;;;;;;;5093326;28;20027;-77
2021/03/26 06:13:26;;;;;;;23.67;11.05;;;;;;;;;;5094224;28;20020;-72
2021/03/26 06:16:10;;;;;;;32.50;20.73;;;;;;;;;;5095256;28;20043;-73
2021/03/26 06:18:48;;;;;;;27.00;14.93;;;;;;;;;;5094930;28;20024;-73
2021/03/26 06:21:23;;;;;;;31.23;17.48;;;;;;;;;;5094385;28;20369;-72
2021/03/26 06:24:04;;;;;;;28.83;15.05;;;;;;;;;;5092141;28;20021;-72
2021/03/26 06:26:49;;;;;;;22.58;13.15;;;;;;;;;;5093912;28;20077;-72
2021/03/26 06:29:38;;;;;;;24.00;14.38;;;;;;;;;;5094515;28;20020;-71
2021/03/26 06:32:17;;;;;;;25.52;15.80;;;;;;;;;;5094626;28;20028;-73
2021/03/26 06:35:02;;;;;;;28.05;15.60;;;;;;;;;;5094379;28;20580;-72
2021/03/26 06:37:34;;;;;;;40.10;22.58;;;;;;;;;;5094604;28;20103;-73
2021/03/26 06:40:05;;;;;;;43.55;25.42;;;;;;;;;;5094248;28;20028;-73
2021/03/26 06:42:40;;;;;;;28.13;15.27;;;;;;;;;;5093071;28;20144;-73
2021/03/26 06:45:18;;;;;;;25.63;12.73;;;;;;;;;;5093064;28;20028;-71
2021/03/26 06:47:58;;;;;;;35.00;19.95;;;;;;;;;;5094142;28;20384;-72
2021/03/26 06:50:53;;;;;;;24.25;13.20;;;;;;;;;;5094427;28;20044;-71
2021/03/26 06:53:19;;;;;;;31.08;15.38;;;;;;;;;;5092907;28;20035;-72
2021/03/26 06:55:48;;;;;;;20.45;10.63;;;;;;;;;;5094205;28;20016;-70
2021/03/26 06:58:33;;;;;;;20.80;12.57;;;;;;;;;;5092308;28;20021;-70
2021/03/26 07:01:00;;;;;;;21.10;11.25;;;;;;;;;;5092678;28;20024;-70
2021/03/26 07:03:32;;;;;;;23.95;13.38;;;;;;;;;;5091596;28;20690;-72
2021/03/26 07:06:17;;;;;;;24.58;13.73;;;;;;;;;;5093353;28;20035;-69
2021/03/26 07:08:57;;;;;;;27.42;13.05;;;;;;;;;;5090529;28;20059;-69
2021/03/26 07:11:36;;;;;;;25.48;14.10;;;;;;;;;;5093006;28;20028;-71
2021/03/26 07:14:12;;;;;;;16.38;9.55;;;;;;;;;;5093865;28;20492;-70
2021/03/26 07:16:50;;;;;;;17.25;10.00;;;;;;;;;;5086927;28;20028;-70
2021/03/26 07:19:16;;;;;;;18.83;8.38;;;;;;;;;;5093978;28;20059;-70
2021/03/26 07:21:51;;;;;;;14.35;7.95;;;;;;;;;;5093901;28;20024;-69
2021/03/26 07:24:38;;;;;;;16.50;8.90;;;;;;;;;;5093572;28;20028;-70
2021/03/26 07:27:14;;;;;;;22.88;13.60;;;;;;;;;;5081258;28;20039;-71
2021/03/26 07:29:45;;;;;;;15.20;9.32;;;;;;;;;;5093687;28;20040;-71
2021/03/26 07:32:21;;;;;;;17.75;9.15;;;;;;;;;;5093763;28;20085;-71
2021/03/26 07:34:56;;;;;;;18.55;10.73;;;;;;;;;;5093871;28;20536;-71
2021/03/26 07:37:31;;;;;;;15.30;8.45;;;;;;;;;;5093192;28;20035;-71
2021/03/26 07:39:57;;;;;;;20.63;10.98;;;;;;;;;;5087204;28;20023;-70
2021/03/26 07:42:35;;;;;;;41.50;23.00;;;;;;;;;;5105589;28;20073;-71
2021/03/26 07:45:34;;;;;;;21.48;11.27;;;;;;;;;;5093988;28;20081;-71
2021/03/26 07:48:26;;;;;;;21.67;11.68;;;;;;;;;;5048591;28;20094;-71
2021/03/26 07:51:11;;;;;;;20.10;11.07;;;;;;;;;;5095842;28;20114;-72
2021/03/26 07:53:38;;;;;;;20.05;11.35;;;;;;;;;;5107661;28;20031;-69
2021/03/26 07:56:23;;;;;;;22.05;11.70;;;;;;;;;;5112752;28;20033;-72
2021/03/26 07:58:49;;;;;;;19.58;11.98;;;;;;;;;;5113114;28;20027;-70
2021/03/26 08:01:23;;;;;;;19.25;11.60;;;;;;;;;;5111223;28;20024;-71
2021/03/26 08:03:49;;;;;;;22.30;12.27;;;;;;;;;;5111543;28;20026;-72
2021/03/26 08:06:36;;;;;;;22.88;13.10;;;;;;;;;;5090685;28;20028;-71
2021/03/26 08:09:21;;;;;;;21.42;13.50;;;;;;;;;;5091575;28;20090;-72
2021/03/26 08:11:57;;;;;;;21.23;13.38;;;;;;;;;;5091217;28;20027;-73
2021/03/26 08:14:23;;;;;;;21.55;13.45;;;;;;;;;;5088330;28;20031;-72
2021/03/26 08:16:52;;;;;;;26.73;12.40;;;;;;;;;;5096789;28;20098;-71
2021/03/26 08:19:22;;;;;;;18.17;10.57;;;;;;;;;;5091226;28;20024;-74
2021/03/26 08:22:14;;;;;;;24.65;12.48;;;;;;;;;;5089905;28;20053;-74
2021/03/26 08:25:13;;;;;;;23.65;12.07;;;;;;;;;;5088275;28;20111;-73
2021/03/26 08:27:44;;;;;;;25.00;11.38;;;;;;;;;;5047035;28;20493;-73
2021/03/26 08:30:10;;;;;;;16.10;8.93;;;;;;;;;;5090892;28;20048;-74
2021/03/26 08:32:54;;;;;;;18.63;9.60;;;;;;;;;;5090816;28;20035;-74
2021/03/26 08:35:21;;;;;;;13.23;6.88;;;;;;;;;;5092056;28;20020;-74
2021/03/26 08:37:51;;;;;;;18.92;10.45;;;;;;;;;;5089678;28;20064;-75
2021/03/26 08:40:26;;;;;;;19.02;10.35;;;;;;;;;;5090882;28;20024;-73
2021/03/26 08:42:53;;;;;;;14.85;8.15;;;;;;;;;;5092239;28;20072;-74
2021/03/26 08:45:30;;;;;;;22.27;11.32;;;;;;;;;;5090656;28;20031;-74
2021/03/26 08:48:19;;;;;;;17.35;11.23;;;;;;;;;;5091959;28;20032;-74
2021/03/26 08:51:04;;;;;;;13.95;8.00;;;;;;;;;;5079397;28;20149;-75
2021/03/26 08:53:49;;;;;;;20.10;9.35;;;;;;;;;;5087523;28;20027;-76
2021/03/26 08:56:18;;;;;;;16.17;8.77;;;;;;;;;;5090494;28;20032;-73
2021/03/26 08:58:51;;;;;;;21.33;10.13;;;;;;;;;;5091905;28;20103;-73
2021/03/26 09:01:36;;;;;;;17.30;9.15;;;;;;;;;;5088745;28;20472;-73
2021/03/26 09:04:12;;;;;;;18.65;9.85;;;;;;;;;;5089512;28;20020;-74
2021/03/26 09:06:50;;;;;;;17.58;9.60;;;;;;;;;;5085758;28;20484;-74
2021/03/26 09:10:52;;;;;;;24.20;12.18;;;;;;;;;;5067896;28;20387;-74
2021/03/26 09:13:27;;;;;;;21.77;10.13;;;;;;;;;;5064554;28;20017;-73
2021/03/26 09:16:03;;;;;;;21.23;10.82;;;;;;;;;;5068503;28;20028;-73
2021/03/26 09:18:41;;;;;;;19.25;10.23;;;;;;;;;;5068889;28;20469;-73
2021/03/26 09:21:12;;;;;;;15.85;9.68;;;;;;;;;;5065694;28;20052;-73
2021/03/26 09:26:49;;;;;;;18.65;9.95;;;;;;;;;;5067945;28;20383;-74
2021/03/26 09:29:45;;;;;;;17.38;8.60;;;;;;;;;;5063200;28;20036;-73
2021/03/26 09:33:57;;;;;;;17.88;8.43;;;;;;;;;;5068099;28;20391;-75
2021/03/26 09:36:27;;;;;;;21.15;11.70;;;;;;;;;;5068183;28;20552;-73
2021/03/26 09:39:05;;;;;;;18.55;10.10;;;;;;;;;;5068418;28;20750;-72
2021/03/26 09:41:47;;;;;;;21.27;8.82;;;;;;;;;;5057800;28;20029;-73
2021/03/26 09:46:30;;;;;;;16.15;8.13;;;;;;;;;;5148726;27;20784;-73
2021/03/26 09:49:02;;;;;;;17.55;9.15;;;;;;;;;;5150800;27;20024;-68
2021/03/26 09:51:58;;;;;;;20.92;9.82;;;;;;;;;;5109031;28;20387;-73
2021/03/26 09:54:26;;;;;;;20.15;10.20;;;;;;;;;;5117694;27;20497;-75
2021/03/26 09:57:46;;;;;;;19.33;9.00;;;;;;;;;;5107137;27;20438;-74
2021/03/26 10:00:28;;;;;;;15.13;7.97;;;;;;;;;;5107850;28;20027;-73
2021/03/26 10:03:00;;;;;;;16.67;9.60;;;;;;;;;;5098724;28;20012;-72
2021/03/26 10:07:25;;;;;;;13.40;6.90;;;;;;;;;;5108182;27;20446;-72
2021/03/26 10:14:55;;;;;;;14.23;7.38;;;;;;;;;;5109684;27;20320;-74
2021/03/26 10:19:07;;;;;;;13.95;8.35;;;;;;;;;;5068737;28;20535;-73
2021/03/26 10:21:34;;;;;;;13.98;8.32;;;;;;;;;;5069309;28;20541;-75
2021/03/26 10:24:00;;;;;;;17.10;8.05;;;;;;;;;;5068661;28;20043;-74
2021/03/26 10:26:30;;;;;;;13.52;7.18;;;;;;;;;;5068744;28;20063;-73
2021/03/26 10:29:55;;;;;;;16.60;8.82;;;;;;;;;;5069875;28;20449;-77
2021/03/26 10:32:21;;;;;;;21.75;11.27;;;;;;;;;;5067478;28;20086;-77
2021/03/26 10:34:48;;;;;;;14.13;7.78;;;;;;;;;;5068856;28;20032;-75
2021/03/26 10:37:32;;;;;;;13.25;7.68;;;;;;;;;;5069368;28;20044;-74
2021/03/26 10:40:01;;;;;;;14.63;7.45;;;;;;;;;;5068800;28;20542;-76
2021/03/26 10:42:40;;;;;;;13.68;6.65;;;;;;;;;;5068667;28;20043;-76
2021/03/26 10:45:29;;;;;;;21.88;12.50;;;;;;;;;;5069037;28;20045;-76
2021/03/26 10:48:07;;;;;;;17.20;9.15;;;;;;;;;;5067576;28;20043;-76
2021/03/26 10:52:22;;;;;;;17.38;9.27;;;;;;;;;;5110504;27;20385;-77
2021/03/26 10:56:52;;;;;;;16.73;8.32;;;;;;;;;;5106459;27;20454;-77
2021/03/26 11:02:54;;;;;;;14.35;7.55;;;;;;;;;;5068934;28;20384;-76
2021/03/26 11:05:29;;;;;;;20.80;13.38;;;;;;;;;;5068266;28;20074;-76
2021/03/26 11:07:58;;;;;;;13.82;7.78;;;;;;;;;;5068877;28;20099;-77
2021/03/26 11:10:27;;;;;;;18.33;9.00;;;;;;;;;;5069360;28;20021;-76
2021/03/26 11:13:12;;;;;;;13.13;8.73;;;;;;;;;;5068198;28;20384;-77
2021/03/26 11:15:39;;;;;;;16.63;9.48;;;;;;;;;;5067327;28;20016;-77
2021/03/26 11:19:26;;;;;;;14.45;8.82;;;;;;;;;;5069250;28;20447;-75
2021/03/26 11:21:54;;;;;;;13.45;8.00;;;;;;;;;;5067424;28;20029;-75
2021/03/26 11:24:21;;;;;;;12.57;7.18;;;;;;;;;;5063004;28;20079;-76
2021/03/26 11:27:03;;;;;;;14.25;8.65;;;;;;;;;;5053993;28;20039;-77
2021/03/26 11:29:35;;;;;;;14.90;9.23;;;;;;;;;;5069028;28;20107;-77
2021/03/26 11:32:09;;;;;;;14.15;9.00;;;;;;;;;;5069156;28;20258;-77
2021/03/26 11:35:16;;;;;;;12.82;7.68;;;;;;;;;;5067497;28;20403;-75
2021/03/26 11:37:50;;;;;;;14.15;7.28;;;;;;;;;;5058467;28;20489;-75
2021/03/26 11:40:16;;;;;;;13.38;7.95;;;;;;;;;;5047094;28;20025;-76
2021/03/26 11:42:48;;;;;;;16.83;7.85;;;;;;;;;;5047384;28;20079;-76
2021/03/26 11:45:14;;;;;;;15.27;8.05;;;;;;;;;;5048460;28;20036;-75
2021/03/26 11:47:42;;;;;;;16.98;7.53;;;;;;;;;;5049180;28;20026;-76
2021/03/26 11:52:18;;;;;;;14.85;8.13;;;;;;;;;;5106148;27;20965;-75
2021/03/26 11:55:03;;;;;;;14.65;7.72;;;;;;;;;;5107280;28;20032;-77
2021/03/26 11:58:37;;;;;;;19.25;8.68;;;;;;;;;;5173244;27;20596;-77
2021/03/26 12:01:08;;;;;;;12.57;6.25;;;;;;;;;;5151494;27;20027;-77
2021/03/26 12:03:50;;;;;;;10.10;5.63;;;;;;;;;;5150599;27;20022;-76
2021/03/26 12:06:55;;;;;;;12.18;5.93;;;;;;;;;;5111860;27;20419;-78
2021/03/26 12:09:34;;;;;;;11.75;6.40;;;;;;;;;;5110068;28;20035;-77
2021/03/26 12:12:15;;;;;;;11.70;6.53;;;;;;;;;;5099721;28;20019;-75
2021/03/26 12:16:19;;;;;;;17.80;9.00;;;;;;;;;;5068395;28;20388;-74
2021/03/26 12:18:45;;;;;;;16.10;9.90;;;;;;;;;;5068664;28;20032;-75
2021/03/26 12:21:34;;;;;;;16.90;10.02;;;;;;;;;;5069021;28;20381;-74
2021/03/26 12:24:14;;;;;;;15.80;9.18;;;;;;;;;;5049773;28;20082;-74
2021/03/26 12:27:03;;;;;;;24.15;13.07;;;;;;;;;;5067894;28;20025;-75
2021/03/26 12:29:42;;;;;;;24.70;14.88;;;;;;;;;;5068746;28;20028;-76
2021/03/26 12:32:11;;;;;;;22.95;11.60;;;;;;;;;;5068906;28;20151;-76
2021/03/26 12:34:56;;;;;;;13.82;7.65;;;;;;;;;;5068692;28;20035;-76
2021/03/26 12:37:50;;;;;;;10.60;6.35;;;;;;;;;;5069531;28;20899;-75
2021/03/26 12:40:48;;;;;;;10.27;5.82;;;;;;;;;;5069833;28;20036;-76
2021/03/26 12:43:20;;;;;;;14.70;9.35;;;;;;;;;;5069297;28;20043;-76
2021/03/26 12:45:57;;;;;;;11.20;6.45;;;;;;;;;;5069568;28;20032;-77
2021/03/26 12:48:46;;;;;;;12.90;6.75;;;;;;;;;;5069230;28;20083;-78
2021/03/26 12:51:28;;;;;;;15.13;9.07;;;;;;;;;;5065091;28;20044;-77
2021/03/26 12:54:02;;;;;;;15.20;8.60;;;;;;;;;;5066758;28;20029;-76
2021/03/26 12:56:47;;;;;;;17.45;12.25;;;;;;;;;;5066868;28;20044;-76
2021/03/26 12:59:16;;;;;;;11.65;7.45;;;;;;;;;;5067082;28;20032;-76
2021/03/26 13:01:48;;;;;;;13.45;8.63;;;;;;;;;;5067120;28;20116;-76
2021/03/26 13:04:33;;;;;;;11.50;7.03;;;;;;;;;;5067560;28;20509;-75
2021/03/26 13:07:02;;;;;;;12.48;7.10;;;;;;;;;;5067605;28;20143;-75
2021/03/26 13:09:37;;;;;;;14.00;8.02;;;;;;;;;;5068437;28;20151;-76
2021/03/26 13:12:09;;;;;;;12.90;7.75;;;;;;;;;;5068716;28;20021;-76
2021/03/26 13:14:44;;;;;;;15.02;8.10;;;;;;;;;;5068231;28;20025;-76
2021/03/26 13:17:21;;;;;;;16.60;8.43;;;;;;;;;;5068372;28;20107;-75
2021/03/26 13:19:47;;;;;;;15.27;8.55;;;;;;;;;;5068458;28;20016;-76
2021/03/26 13:22:33;;;;;;;9.98;6.25;;;;;;;;;;5068133;28;20039;-76
2021/03/26 13:25:26;;;;;;;12.75;6.65;;;;;;;;;;5068587;28;20086;-76
2021/03/26 13:27:55;;;;;;;15.05;8.05;;;;;;;;;;5067230;28;20122;-76
2021/03/26 13:30:27;;;;;;;18.20;9.13;;;;;;;;;;5067785;28;20021;-76
2021/03/26 13:32:57;;;;;;;13.43;7.45;;;;;;;;;;5068134;28;20025;-77
2021/03/26 13:35:29;;;;;;;15.13;8.20;;;;;;;;;;5066519;28;20025;-72
2021/03/26 13:38:00;;;;;;;17.63;8.43;;;;;;;;;;5068181;28;20029;-77
2021/03/26 13:40:26;;;;;;;11.77;7.13;;;;;;;;;;5068077;28;20104;-76
2021/03/26 13:42:59;;;;;;;16.02;8.75;;;;;;;;;;5067574;28;20029;-76
2021/03/26 13:45:27;;;;;;;15.30;9.57;;;;;;;;;;5068663;28;20024;-76
2021/03/26 13:47:59;;;;;;;15.45;9.00;;;;;;;;;;5061723;28;20370;-76
2021/03/26 13:50:28;;;;;;;12.73;7.40;;;;;;;;;;5054148;28;20016;-76
2021/03/26 13:52:54;;;;;;;15.02;7.72;;;;;;;;;;5054554;28;20025;-76
2021/03/26 13:55:38;;;;;;;12.30;7.13;;;;;;;;;;5054538;28;20021;-77
2021/03/26 13:58:22;;;;;;;14.45;7.95;;;;;;;;;;5054230;28;20096;-78
2021/03/26 14:01:01;;;;;;;16.33;8.32;;;;;;;;;;5055193;28;20035;-78
2021/03/26 14:03:38;;;;;;;11.63;7.65;;;;;;;;;;5055363;28;20017;-78
2021/03/26 14:06:23;;;;;;;13.93;7.88;;;;;;;;;;5054170;28;20408;-77
2021/03/26 14:08:52;;;;;;;13.95;6.10;;;;;;;;;;5055359;28;20036;-77
2021/03/26 14:11:39;;;;;;;13.00;7.07;;;;;;;;;;5054569;28;20043;-77
2021/03/26 14:14:15;;;;;;;10.73;6.38;;;;;;;;;;5054862;28;20025;-78
2021/03/26 14:16:41;;;;;;;10.65;5.68;;;;;;;;;;5054667;28;20112;-77
2021/03/26 14:19:14;;;;;;;11.98;7.40;;;;;;;;;;5052956;28;20070;-77
2021/03/26 14:21:43;;;;;;;16.58;9.65;;;;;;;;;;5054684;28;20017;-77
2021/03/26 14:24:29;;;;;;;11.25;7.00;;;;;;;;;;5054902;28;20477;-77
2021/03/26 14:27:18;;;;;;;10.43;5.53;;;;;;;;;;5044099;28;20428;-77
2021/03/26 14:29:58;;;;;;;14.13;7.43;;;;;;;;;;5052326;28;20486;-78
2021/03/26 14:32:43;;;;;;;16.55;8.15;;;;;;;;;;5054096;28;20056;-79
2021/03/26 14:35:18;;;;;;;10.88;5.75;;;;;;;;;;5054356;28;20067;-78
2021/03/26 14:37:46;;;;;;;19.98;11.50;;;;;;;;;;5054022;28;20049;-78
2021/03/26 14:40:25;;;;;;;18.27;10.48;;;;;;;;;;5054099;28;20024;-77
2021/03/26 14:42:58;;;;;;;14.93;8.38;;;;;;;;;;5054518;28;20025;-78
2021/03/26 14:45:26;;;;;;;14.52;8.43;;;;;;;;;;5054890;28;20470;-77
2021/03/26 14:48:00;;;;;;;15.95;10.60;;;;;;;;;;5053919;28;20112;-78
2021/03/26 14:50:27;;;;;;;16.30;10.50;;;;;;;;;;5054080;28;20021;-78
2021/03/26 14:53:05;;;;;;;12.15;6.82;;;;;;;;;;5052170;28;20437;-78
2021/03/26 14:55:44;;;;;;;14.05;8.15;;;;;;;;;;5053758;28;20074;-78
2021/03/26 14:58:10;;;;;;;18.45;11.02;;;;;;;;;;5053805;28;20108;-78
2021/03/26 15:00:45;;;;;;;16.00;9.27;;;;;;;;;;5052596;28;20069;-78
2021/03/26 15:03:30;;;;;;;15.15;8.85;;;;;;;;;;5054303;28;20079;-77
2021/03/26 15:05:56;;;;;;;13.45;9.30;;;;;;;;;;5054287;28;20316;-77
2021/03/26 15:08:35;;;;;;;15.68;10.32;;;;;;;;;;5053340;28;20017;-76
2021/03/26 15:11:01;;;;;;;14.85;9.18;;;;;;;;;;5053261;28;20082;-77
2021/03/26 15:13:34;;;;;;;16.42;10.80;;;;;;;;;;5053439;28;20039;-76
2021/03/26 15:16:07;;;;;;;20.67;11.02;;;;;;;;;;5053118;28;20028;-75
2021/03/26 15:18:42;;;;;;;17.35;10.75;;;;;;;;;;5053395;28;20024;-77
2021/03/26 15:21:08;;;;;;;14.40;9.80;;;;;;;;;;5053172;28;20028;-76
2021/03/26 15:23:41;;;;;;;16.58;9.32;;;;;;;;;;5053324;28;20027;-76
2021/03/26 15:26:07;;;;;;;12.98;8.52;;;;;;;;;;5053643;28;20021;-76
2021/03/26 15:28:40;;;;;;;22.05;14.27;;;;;;;;;;5053003;28;20029;-76
2021/03/26 15:31:25;;;;;;;15.68;9.23;;;;;;;;;;5053290;28;20053;-76
2021/03/26 15:34:06;;;;;;;17.33;9.82;;;;;;;;;;5053021;28;20039;-76